sensor_id;sensor_type;location;lat;lon;timestamp;pressure;altitude;pressure_sealevel;temperature;humidity
2339;BME280;1180;51.438;6.978;2023-08-20T00:00:07;100762.38;;;23.79;89.69
2339;BME280;1180;51.438;6.978;2023-08-20T00:02:43;100768.59;;;23.78;89.88
2339;BME280;1180;51.438;6.978;2023-08-20T00:05:12;100766.44;;;23.82;89.82
2339;BME280;1180;51.438;6.978;2023-08-20T00:07:41;100765.47;;;23.83;89.98
2339;BME280;1180;51.438;6.978;2023-08-20T00:10:10;100761.53;;;23.78;90.81
2339;BME280;1180;51.438;6.978;2023-08-20T00:12:36;100750.72;;;23.82;90.73
2339;BME280;1180;51.438;6.978;2023-08-20T00:15:03;100763.84;;;23.73;91.96
2339;BME280;1180;51.438;6.978;2023-08-20T00:17:37;100770.56;;;23.68;93.05
2339;BME280;1180;51.438;6.978;2023-08-20T00:20:05;100762.41;;;23.71;93.24
2339;BME280;1180;51.438;6.978;2023-08-20T00:22:42;100757.16;;;23.71;93.73
2339;BME280;1180;51.438;6.978;2023-08-20T00:25:14;100748.97;;;23.74;93.70
2339;BME280;1180;51.438;6.978;2023-08-20T00:27:42;100757.63;;;23.66;95.54
2339;BME280;1180;51.438;6.978;2023-08-20T00:30:08;100762.03;;;23.65;96.31
2339;BME280;1180;51.438;6.978;2023-08-20T00:32:36;100754.84;;;23.76;95.31
2339;BME280;1180;51.438;6.978;2023-08-20T00:35:02;100757.47;;;23.76;95.39
2339;BME280;1180;51.438;6.978;2023-08-20T00:37:30;100760.59;;;23.71;95.72
2339;BME280;1180;51.438;6.978;2023-08-20T00:39:57;100768.59;;;23.70;96.16
2339;BME280;1180;51.438;6.978;2023-08-20T00:42:24;100761.91;;;23.67;96.53
2339;BME280;1180;51.438;6.978;2023-08-20T00:44:54;100780.56;;;23.64;97.18
2339;BME280;1180;51.438;6.978;2023-08-20T00:47:21;100764.34;;;23.52;98.02
2339;BME280;1180;51.438;6.978;2023-08-20T00:49:48;100751.59;;;23.49;98.43
2339;BME280;1180;51.438;6.978;2023-08-20T00:52:16;100750.13;;;23.55;97.99
2339;BME280;1180;51.438;6.978;2023-08-20T00:54:45;100748.81;;;23.59;97.36
2339;BME280;1180;51.438;6.978;2023-08-20T00:57:15;100757.00;;;23.56;97.64
2339;BME280;1180;51.438;6.978;2023-08-20T00:59:43;100748.97;;;23.49;97.68
2339;BME280;1180;51.438;6.978;2023-08-20T01:02:10;100755.19;;;23.48;97.81
2339;BME280;1180;51.438;6.978;2023-08-20T01:04:36;100760.91;;;23.43;97.50
2339;BME280;1180;51.438;6.978;2023-08-20T01:07:14;100756.47;;;23.35;98.04
2339;BME280;1180;51.438;6.978;2023-08-20T01:09:50;100742.22;;;23.21;98.85
2339;BME280;1180;51.438;6.978;2023-08-20T01:12:23;100761.03;;;23.17;99.17
2339;BME280;1180;51.438;6.978;2023-08-20T01:14:50;100751.72;;;23.22;99.10
2339;BME280;1180;51.438;6.978;2023-08-20T01:17:16;100751.44;;;23.26;98.67
2339;BME280;1180;51.438;6.978;2023-08-20T01:19:42;100752.72;;;23.30;98.30
2339;BME280;1180;51.438;6.978;2023-08-20T01:22:35;100750.09;;;23.38;97.74
2339;BME280;1180;51.438;6.978;2023-08-20T01:25:24;100757.00;;;23.31;98.36
2339;BME280;1180;51.438;6.978;2023-08-20T01:30:27;100754.84;;;23.34;98.19
2339;BME280;1180;51.438;6.978;2023-08-20T01:32:55;100757.31;;;23.36;97.28
2339;BME280;1180;51.438;6.978;2023-08-20T01:35:24;100758.94;;;23.37;97.36
2339;BME280;1180;51.438;6.978;2023-08-20T01:37:50;100762.03;;;23.32;97.60
2339;BME280;1180;51.438;6.978;2023-08-20T01:40:16;100762.38;;;23.29;97.96
2339;BME280;1180;51.438;6.978;2023-08-20T01:42:43;100762.00;;;23.24;98.56
2339;BME280;1180;51.438;6.978;2023-08-20T01:45:09;100761.22;;;23.23;98.39
2339;BME280;1180;51.438;6.978;2023-08-20T01:47:36;100764.16;;;23.20;98.78
2339;BME280;1180;51.438;6.978;2023-08-20T01:50:03;100757.75;;;23.23;98.43
2339;BME280;1180;51.438;6.978;2023-08-20T01:52:30;100757.09;;;23.13;99.54
2339;BME280;1180;51.438;6.978;2023-08-20T01:54:57;100756.59;;;23.09;100.00
2339;BME280;1180;51.438;6.978;2023-08-20T01:57:23;100752.19;;;23.10;100.00
2339;BME280;1180;51.438;6.978;2023-08-20T01:59:49;100751.34;;;23.17;100.00
2339;BME280;1180;51.438;6.978;2023-08-20T02:02:15;100755.31;;;23.21;100.00
2339;BME280;1180;51.438;6.978;2023-08-20T02:04:41;100759.41;;;23.24;99.91
2339;BME280;1180;51.438;6.978;2023-08-20T02:07:07;100766.75;;;23.12;100.00
2339;BME280;1180;51.438;6.978;2023-08-20T02:09:34;100756.44;;;23.19;100.00
2339;BME280;1180;51.438;6.978;2023-08-20T02:12:00;100764.31;;;23.19;100.00
2339;BME280;1180;51.438;6.978;2023-08-20T02:14:26;100767.25;;;23.16;100.00
2339;BME280;1180;51.438;6.978;2023-08-20T02:16:54;100760.38;;;23.15;100.00
2339;BME280;1180;51.438;6.978;2023-08-20T02:19:20;100778.19;;;23.19;100.00
2339;BME280;1180;51.438;6.978;2023-08-20T02:21:47;100778.03;;;23.13;100.00
2339;BME280;1180;51.438;6.978;2023-08-20T02:24:13;100786.03;;;23.11;100.00
2339;BME280;1180;51.438;6.978;2023-08-20T02:26:39;100789.66;;;23.10;100.00
2339;BME280;1180;51.438;6.978;2023-08-20T02:29:05;100789.44;;;23.03;100.00
2339;BME280;1180;51.438;6.978;2023-08-20T02:31:31;100795.19;;;22.99;100.00
2339;BME280;1180;51.438;6.978;2023-08-20T02:33:57;100799.25;;;23.01;100.00
2339;BME280;1180;51.438;6.978;2023-08-20T02:36:23;100806.00;;;23.04;100.00
2339;BME280;1180;51.438;6.978;2023-08-20T02:38:50;100814.50;;;23.06;100.00
2339;BME280;1180;51.438;6.978;2023-08-20T02:41:16;100815.34;;;23.06;100.00
2339;BME280;1180;51.438;6.978;2023-08-20T02:43:42;100820.56;;;23.06;100.00
2339;BME280;1180;51.438;6.978;2023-08-20T02:46:08;100813.69;;;23.05;100.00
2339;BME280;1180;51.438;6.978;2023-08-20T02:48:35;100812.88;;;23.05;100.00
2339;BME280;1180;51.438;6.978;2023-08-20T02:51:01;100805.00;;;23.05;100.00
2339;BME280;1180;51.438;6.978;2023-08-20T02:53:28;100812.53;;;23.08;100.00
2339;BME280;1180;51.438;6.978;2023-08-20T02:55:55;100812.22;;;23.11;100.00
2339;BME280;1180;51.438;6.978;2023-08-20T02:58:22;100808.31;;;23.15;100.00
2339;BME280;1180;51.438;6.978;2023-08-20T03:00:48;100819.59;;;23.16;100.00
2339;BME280;1180;51.438;6.978;2023-08-20T03:03:14;100807.00;;;23.11;100.00
2339;BME280;1180;51.438;6.978;2023-08-20T03:05:41;100804.38;;;23.11;100.00
2339;BME280;1180;51.438;6.978;2023-08-20T03:08:07;100804.69;;;23.08;100.00
2339;BME280;1180;51.438;6.978;2023-08-20T03:10:34;100809.06;;;22.99;100.00
2339;BME280;1180;51.438;6.978;2023-08-20T03:13:03;100806.13;;;22.94;100.00
2339;BME280;1180;51.438;6.978;2023-08-20T03:15:29;100816.44;;;22.96;100.00
2339;BME280;1180;51.438;6.978;2023-08-20T03:17:55;100809.41;;;22.96;100.00
2339;BME280;1180;51.438;6.978;2023-08-20T03:20:21;100812.19;;;22.94;100.00
2339;BME280;1180;51.438;6.978;2023-08-20T03:22:48;100804.81;;;22.90;100.00
2339;BME280;1180;51.438;6.978;2023-08-20T03:25:14;100808.22;;;22.82;100.00
2339;BME280;1180;51.438;6.978;2023-08-20T03:27:41;100808.72;;;22.86;100.00
2339;BME280;1180;51.438;6.978;2023-08-20T03:30:08;100822.94;;;22.83;100.00
2339;BME280;1180;51.438;6.978;2023-08-20T03:32:35;100822.28;;;22.81;100.00
2339;BME280;1180;51.438;6.978;2023-08-20T03:35:01;100824.09;;;22.81;100.00
2339;BME280;1180;51.438;6.978;2023-08-20T03:37:28;100817.69;;;22.83;100.00
2339;BME280;1180;51.438;6.978;2023-08-20T03:39:54;100817.69;;;22.83;100.00
2339;BME280;1180;51.438;6.978;2023-08-20T03:42:20;100818.84;;;22.81;100.00
2339;BME280;1180;51.438;6.978;2023-08-20T03:44:47;100815.72;;;22.77;100.00
2339;BME280;1180;51.438;6.978;2023-08-20T03:47:12;100814.25;;;22.74;100.00
2339;BME280;1180;51.438;6.978;2023-08-20T03:49:40;100811.19;;;22.53;100.00
2339;BME280;1180;51.438;6.978;2023-08-20T03:52:06;100812.22;;;22.60;100.00
2339;BME280;1180;51.438;6.978;2023-08-20T03:54:33;100811.94;;;22.71;100.00
2339;BME280;1180;51.438;6.978;2023-08-20T03:57:00;100818.13;;;22.70;100.00
2339;BME280;1180;51.438;6.978;2023-08-20T03:59:26;100818.94;;;22.62;100.00
2339;BME280;1180;51.438;6.978;2023-08-20T04:01:52;100819.09;;;22.61;100.00
2339;BME280;1180;51.438;6.978;2023-08-20T04:04:18;100820.56;;;22.63;100.00
2339;BME280;1180;51.438;6.978;2023-08-20T04:06:44;100822.88;;;22.67;100.00
2339;BME280;1180;51.438;6.978;2023-08-20T04:09:10;100820.25;;;22.67;100.00
2339;BME280;1180;51.438;6.978;2023-08-20T04:11:36;100834.97;;;22.68;100.00
2339;BME280;1180;51.438;6.978;2023-08-20T04:14:03;100832.78;;;22.55;100.00
2339;BME280;1180;51.438;6.978;2023-08-20T04:16:29;100833.25;;;22.50;100.00
2339;BME280;1180;51.438;6.978;2023-08-20T04:18:56;100836.69;;;22.50;100.00
2339;BME280;1180;51.438;6.978;2023-08-20T04:21:22;100829.00;;;22.49;100.00
2339;BME280;1180;51.438;6.978;2023-08-20T04:23:48;100826.75;;;22.54;100.00
2339;BME280;1180;51.438;6.978;2023-08-20T04:26:14;100824.91;;;22.46;100.00
2339;BME280;1180;51.438;6.978;2023-08-20T04:28:41;100836.03;;;22.48;100.00
2339;BME280;1180;51.438;6.978;2023-08-20T04:31:07;100840.44;;;22.48;100.00
2339;BME280;1180;51.438;6.978;2023-08-20T04:33:33;100844.84;;;22.47;100.00
2339;BME280;1180;51.438;6.978;2023-08-20T04:36:00;100838.94;;;22.45;100.00
2339;BME280;1180;51.438;6.978;2023-08-20T04:38:26;100842.38;;;22.46;100.00
2339;BME280;1180;51.438;6.978;2023-08-20T04:40:53;100847.53;;;22.38;100.00
2339;BME280;1180;51.438;6.978;2023-08-20T04:43:18;100851.00;;;22.38;100.00
2339;BME280;1180;51.438;6.978;2023-08-20T04:45:45;100844.72;;;22.31;100.00
2339;BME280;1180;51.438;6.978;2023-08-20T04:48:10;100843.91;;;22.30;100.00
2339;BME280;1180;51.438;6.978;2023-08-20T04:50:36;100847.50;;;22.29;100.00
2339;BME280;1180;51.438;6.978;2023-08-20T04:53:02;100847.69;;;22.36;100.00
2339;BME280;1180;51.438;6.978;2023-08-20T04:55:28;100855.72;;;22.43;100.00
2339;BME280;1180;51.438;6.978;2023-08-20T04:57:55;100851.66;;;22.40;100.00
2339;BME280;1180;51.438;6.978;2023-08-20T05:00:23;100846.88;;;22.35;100.00
2339;BME280;1180;51.438;6.978;2023-08-20T05:02:50;100849.50;;;22.35;100.00
2339;BME280;1180;51.438;6.978;2023-08-20T05:05:16;100851.34;;;22.43;100.00
2339;BME280;1180;51.438;6.978;2023-08-20T05:07:42;100849.69;;;22.42;100.00
2339;BME280;1180;51.438;6.978;2023-08-20T05:10:08;100851.13;;;22.36;100.00
2339;BME280;1180;51.438;6.978;2023-08-20T05:12:35;100855.25;;;22.39;100.00
2339;BME280;1180;51.438;6.978;2023-08-20T05:15:01;100858.53;;;22.41;100.00
2339;BME280;1180;51.438;6.978;2023-08-20T05:17:27;100860.00;;;22.44;100.00
2339;BME280;1180;51.438;6.978;2023-08-20T05:19:53;100857.94;;;22.47;100.00
2339;BME280;1180;51.438;6.978;2023-08-20T05:22:19;100854.75;;;22.44;100.00
2339;BME280;1180;51.438;6.978;2023-08-20T05:24:45;100851.06;;;22.46;100.00
2339;BME280;1180;51.438;6.978;2023-08-20T05:27:16;100858.13;;;22.54;100.00
2339;BME280;1180;51.438;6.978;2023-08-20T05:29:45;100856.19;;;22.56;100.00
2339;BME280;1180;51.438;6.978;2023-08-20T05:32:11;100859.81;;;22.63;100.00
2339;BME280;1180;51.438;6.978;2023-08-20T05:34:38;100866.06;;;22.71;100.00
2339;BME280;1180;51.438;6.978;2023-08-20T05:37:04;100866.41;;;22.76;100.00
2339;BME280;1180;51.438;6.978;2023-08-20T05:39:30;100861.81;;;22.70;100.00
2339;BME280;1180;51.438;6.978;2023-08-20T05:41:57;100864.09;;;22.73;100.00
2339;BME280;1180;51.438;6.978;2023-08-20T05:44:23;100862.50;;;22.80;100.00
2339;BME280;1180;51.438;6.978;2023-08-20T05:46:49;100858.28;;;22.87;100.00
2339;BME280;1180;51.438;6.978;2023-08-20T05:49:15;100861.56;;;22.89;100.00
2339;BME280;1180;51.438;6.978;2023-08-20T05:51:42;100861.25;;;22.92;100.00
2339;BME280;1180;51.438;6.978;2023-08-20T05:54:08;100860.94;;;22.96;100.00
2339;BME280;1180;51.438;6.978;2023-08-20T05:56:34;100860.31;;;23.02;100.00
2339;BME280;1180;51.438;6.978;2023-08-20T05:59:01;100858.19;;;23.05;100.00
2339;BME280;1180;51.438;6.978;2023-08-20T06:01:27;100854.94;;;23.12;100.00
2339;BME280;1180;51.438;6.978;2023-08-20T06:03:54;100853.47;;;23.17;100.00
2339;BME280;1180;51.438;6.978;2023-08-20T06:06:21;100859.59;;;23.26;100.00
2339;BME280;1180;51.438;6.978;2023-08-20T06:08:48;100866.13;;;23.30;100.00
2339;BME280;1180;51.438;6.978;2023-08-20T06:11:14;100872.69;;;23.34;100.00
2339;BME280;1180;51.438;6.978;2023-08-20T06:13:40;100873.84;;;23.40;100.00
2339;BME280;1180;51.438;6.978;2023-08-20T06:16:07;100867.66;;;23.49;100.00
2339;BME280;1180;51.438;6.978;2023-08-20T06:18:34;100865.06;;;23.58;100.00
2339;BME280;1180;51.438;6.978;2023-08-20T06:21:00;100865.88;;;23.58;100.00
2339;BME280;1180;51.438;6.978;2023-08-20T06:23:26;100868.66;;;23.65;100.00
2339;BME280;1180;51.438;6.978;2023-08-20T06:25:52;100873.41;;;23.61;100.00
2339;BME280;1180;51.438;6.978;2023-08-20T06:28:18;100873.41;;;23.70;100.00
2339;BME280;1180;51.438;6.978;2023-08-20T06:30:45;100870.97;;;23.68;100.00
2339;BME280;1180;51.438;6.978;2023-08-20T06:33:11;100880.13;;;23.80;100.00
2339;BME280;1180;51.438;6.978;2023-08-20T06:35:39;100883.41;;;23.83;100.00
2339;BME280;1180;51.438;6.978;2023-08-20T06:38:05;100883.06;;;23.86;100.00
2339;BME280;1180;51.438;6.978;2023-08-20T06:40:31;100885.41;;;23.89;100.00
2339;BME280;1180;51.438;6.978;2023-08-20T06:42:58;100892.94;;;24.00;100.00
2339;BME280;1180;51.438;6.978;2023-08-20T06:45:24;100886.41;;;24.04;100.00
2339;BME280;1180;51.438;6.978;2023-08-20T06:47:50;100892.63;;;24.12;100.00
2339;BME280;1180;51.438;6.978;2023-08-20T06:50:16;100895.25;;;24.20;100.00
2339;BME280;1180;51.438;6.978;2023-08-20T06:52:42;100891.97;;;24.26;100.00
2339;BME280;1180;51.438;6.978;2023-08-20T06:55:09;100887.69;;;24.33;100.00
2339;BME280;1180;51.438;6.978;2023-08-20T06:57:35;100889.81;;;24.38;99.80
2339;BME280;1180;51.438;6.978;2023-08-20T07:00:01;100891.94;;;24.34;100.00
2339;BME280;1180;51.438;6.978;2023-08-20T07:02:30;100887.31;;;24.45;99.68
2339;BME280;1180;51.438;6.978;2023-08-20T07:04:56;100888.28;;;24.52;99.40
2339;BME280;1180;51.438;6.978;2023-08-20T07:07:23;100881.06;;;24.62;98.74
2339;BME280;1180;51.438;6.978;2023-08-20T07:09:49;100894.50;;;24.67;99.30
2339;BME280;1180;51.438;6.978;2023-08-20T07:12:15;100881.69;;;24.73;98.49
2339;BME280;1180;51.438;6.978;2023-08-20T07:14:42;100888.75;;;24.80;98.30
2339;BME280;1180;51.438;6.978;2023-08-20T07:17:08;100890.69;;;24.87;98.04
2339;BME280;1180;51.438;6.978;2023-08-20T07:19:34;100888.22;;;24.93;97.90
2339;BME280;1180;51.438;6.978;2023-08-20T07:22:00;100883.91;;;25.01;97.37
2339;BME280;1180;51.438;6.978;2023-08-20T07:24:26;100880.13;;;25.03;97.40
2339;BME280;1180;51.438;6.978;2023-08-20T07:26:55;100882.22;;;25.08;96.84
2339;BME280;1180;51.438;6.978;2023-08-20T07:29:26;100891.06;;;25.15;96.87
2339;BME280;1180;51.438;6.978;2023-08-20T07:31:55;100887.13;;;25.19;96.36
2339;BME280;1180;51.438;6.978;2023-08-20T07:34:21;100873.63;;;25.22;97.32
2339;BME280;1180;51.438;6.978;2023-08-20T07:36:48;100882.97;;;25.25;96.71
2339;BME280;1180;51.438;6.978;2023-08-20T07:39:14;100878.84;;;25.31;95.90
2339;BME280;1180;51.438;6.978;2023-08-20T07:41:43;100880.13;;;25.35;95.72
2339;BME280;1180;51.438;6.978;2023-08-20T07:44:09;100883.88;;;25.41;95.81
2339;BME280;1180;51.438;6.978;2023-08-20T07:46:35;100887.16;;;25.43;95.54
2339;BME280;1180;51.438;6.978;2023-08-20T07:49:01;100887.13;;;25.51;94.59
2339;BME280;1180;51.438;6.978;2023-08-20T07:51:27;100893.66;;;25.55;93.98
2339;BME280;1180;51.438;6.978;2023-08-20T07:53:53;100890.50;;;25.60;93.29
2339;BME280;1180;51.438;6.978;2023-08-20T07:56:19;100887.19;;;25.66;92.84
2339;BME280;1180;51.438;6.978;2023-08-20T07:58:45;100887.41;;;25.56;93.41
2339;BME280;1180;51.438;6.978;2023-08-20T08:01:11;100890.38;;;25.53;94.01
2339;BME280;1180;51.438;6.978;2023-08-20T08:03:40;100894.72;;;25.69;92.60
2339;BME280;1180;51.438;6.978;2023-08-20T08:06:06;100892.91;;;25.38;88.94
2339;BME280;1180;51.438;6.978;2023-08-20T08:08:32;100892.91;;;25.38;89.71
2339;BME280;1180;51.438;6.978;2023-08-20T08:10:58;100893.50;;;25.57;86.86
2339;BME280;1180;51.438;6.978;2023-08-20T08:13:26;100891.88;;;25.47;86.20
2339;BME280;1180;51.438;6.978;2023-08-20T08:15:52;100894.78;;;25.61;87.56
2339;BME280;1180;51.438;6.978;2023-08-20T08:18:19;100891.97;;;25.62;87.98
2339;BME280;1180;51.438;6.978;2023-08-20T08:20:46;100891.03;;;25.78;87.38
2339;BME280;1180;51.438;6.978;2023-08-20T08:23:12;100887.91;;;25.98;85.99
2339;BME280;1180;51.438;6.978;2023-08-20T08:25:38;100895.56;;;26.08;85.48
2339;BME280;1180;51.438;6.978;2023-08-20T08:28:05;100892.69;;;26.18;84.02
2339;BME280;1180;51.438;6.978;2023-08-20T08:30:32;100897.91;;;26.26;83.65
2339;BME280;1180;51.438;6.978;2023-08-20T08:32:58;100899.34;;;26.29;83.67
2339;BME280;1180;51.438;6.978;2023-08-20T08:35:24;100909.06;;;26.28;83.44
2339;BME280;1180;51.438;6.978;2023-08-20T08:37:51;100907.06;;;26.30;82.24
2339;BME280;1180;51.438;6.978;2023-08-20T08:40:17;100907.50;;;26.34;81.92
2339;BME280;1180;51.438;6.978;2023-08-20T08:42:49;100905.53;;;26.36;81.93
2339;BME280;1180;51.438;6.978;2023-08-20T08:45:18;100903.53;;;26.38;81.45
2339;BME280;1180;51.438;6.978;2023-08-20T08:47:46;100904.53;;;26.37;79.93
2339;BME280;1180;51.438;6.978;2023-08-20T08:50:12;100902.34;;;26.41;79.85
2339;BME280;1180;51.438;6.978;2023-08-20T08:52:39;100901.44;;;26.48;79.66
2339;BME280;1180;51.438;6.978;2023-08-20T08:55:07;100906.81;;;26.55;78.73
2339;BME280;1180;51.438;6.978;2023-08-20T08:57:37;100907.19;;;26.52;77.51
2339;BME280;1180;51.438;6.978;2023-08-20T09:00:04;100903.81;;;26.43;78.85
2339;BME280;1180;51.438;6.978;2023-08-20T09:02:31;100905.88;;;26.48;78.61
2339;BME280;1180;51.438;6.978;2023-08-20T09:04:57;100910.16;;;26.64;78.07
2339;BME280;1180;51.438;6.978;2023-08-20T09:07:23;100919.78;;;26.72;78.50
2339;BME280;1180;51.438;6.978;2023-08-20T09:09:49;100914.34;;;26.73;79.38
2339;BME280;1180;51.438;6.978;2023-08-20T09:12:15;100911.00;;;26.79;79.83
2339;BME280;1180;51.438;6.978;2023-08-20T09:14:51;100910.53;;;26.91;80.13
2339;BME280;1180;51.438;6.978;2023-08-20T09:17:17;100911.13;;;26.86;78.08
2339;BME280;1180;51.438;6.978;2023-08-20T09:19:45;100905.63;;;27.03;78.30
2339;BME280;1180;51.438;6.978;2023-08-20T09:22:12;100905.72;;;27.09;77.04
2339;BME280;1180;51.438;6.978;2023-08-20T09:24:51;100910.63;;;27.13;76.79
2339;BME280;1180;51.438;6.978;2023-08-20T09:27:17;100905.78;;;27.16;75.30
2339;BME280;1180;51.438;6.978;2023-08-20T09:29:53;100912.38;;;27.27;74.47
2339;BME280;1180;51.438;6.978;2023-08-20T09:32:27;100917.69;;;27.12;73.91
2339;BME280;1180;51.438;6.978;2023-08-20T09:34:55;100912.78;;;26.64;74.84
2339;BME280;1180;51.438;6.978;2023-08-20T09:37:24;100918.00;;;26.87;75.62
2339;BME280;1180;51.438;6.978;2023-08-20T09:39:52;100919.44;;;26.90;75.97
2339;BME280;1180;51.438;6.978;2023-08-20T09:42:18;100917.78;;;26.74;75.54
2339;BME280;1180;51.438;6.978;2023-08-20T09:44:45;100925.34;;;26.92;74.48
2339;BME280;1180;51.438;6.978;2023-08-20T09:47:14;100924.44;;;27.00;76.37
2339;BME280;1180;51.438;6.978;2023-08-20T09:49:47;100927.50;;;27.18;74.88
2339;BME280;1180;51.438;6.978;2023-08-20T09:52:25;100929.16;;;27.04;73.30
2339;BME280;1180;51.438;6.978;2023-08-20T09:57:36;100932.66;;;27.27;74.25
2339;BME280;1180;51.438;6.978;2023-08-20T10:00:04;100933.69;;;27.47;73.92
2339;BME280;1180;51.438;6.978;2023-08-20T10:02:37;100928.59;;;27.61;72.50
2339;BME280;1180;51.438;6.978;2023-08-20T10:05:07;100932.34;;;27.73;71.80
2339;BME280;1180;51.438;6.978;2023-08-20T10:07:37;100934.13;;;27.88;69.80
2339;BME280;1180;51.438;6.978;2023-08-20T10:10:10;100938.06;;;27.99;69.11
2339;BME280;1180;51.438;6.978;2023-08-20T10:12:40;100938.63;;;27.94;71.63
2339;BME280;1180;51.438;6.978;2023-08-20T10:15:08;100937.81;;;27.93;71.27
2339;BME280;1180;51.438;6.978;2023-08-20T10:17:38;100934.16;;;27.51;74.09
2339;BME280;1180;51.438;6.978;2023-08-20T10:20:05;100942.59;;;27.09;75.47
2339;BME280;1180;51.438;6.978;2023-08-20T10:22:40;100935.03;;;27.21;76.17
2339;BME280;1180;51.438;6.978;2023-08-20T10:25:07;100936.59;;;27.16;75.53
2339;BME280;1180;51.438;6.978;2023-08-20T10:27:38;100937.69;;;27.43;75.55
2339;BME280;1180;51.438;6.978;2023-08-20T10:30:25;100933.63;;;27.56;73.76
2339;BME280;1180;51.438;6.978;2023-08-20T10:32:52;100927.56;;;27.83;73.68
2339;BME280;1180;51.438;6.978;2023-08-20T10:35:46;100927.41;;;28.14;72.21
2339;BME280;1180;51.438;6.978;2023-08-20T10:38:14;100936.09;;;28.07;70.58
2339;BME280;1180;51.438;6.978;2023-08-20T10:43:29;100937.88;;;28.22;72.14
2339;BME280;1180;51.438;6.978;2023-08-20T10:46:25;100932.97;;;27.97;72.86
2339;BME280;1180;51.438;6.978;2023-08-20T10:48:56;100934.16;;;27.51;73.80
2339;BME280;1180;51.438;6.978;2023-08-20T10:51:32;100935.13;;;27.65;73.30
2339;BME280;1180;51.438;6.978;2023-08-20T11:01:46;100935.31;;;27.27;75.86
2339;BME280;1180;51.438;6.978;2023-08-20T11:04:17;100936.09;;;27.27;76.12
2339;BME280;1180;51.438;6.978;2023-08-20T11:06:46;100932.41;;;27.21;75.81
2339;BME280;1180;51.438;6.978;2023-08-20T11:09:14;100938.72;;;27.42;75.94
2339;BME280;1180;51.438;6.978;2023-08-20T11:11:41;100947.41;;;27.79;74.39
2339;BME280;1180;51.438;6.978;2023-08-20T11:14:12;100936.41;;;27.97;72.54
2339;BME280;1180;51.438;6.978;2023-08-20T11:16:42;100935.03;;;28.23;71.18
2339;BME280;1180;51.438;6.978;2023-08-20T11:19:09;100939.81;;;28.42;69.42
2339;BME280;1180;51.438;6.978;2023-08-20T11:21:36;100938.91;;;28.21;69.30
2339;BME280;1180;51.438;6.978;2023-08-20T11:24:03;100941.56;;;28.28;69.87
2339;BME280;1180;51.438;6.978;2023-08-20T11:26:30;100945.44;;;28.32;68.70
2339;BME280;1180;51.438;6.978;2023-08-20T11:28:56;100938.75;;;28.07;69.68
2339;BME280;1180;51.438;6.978;2023-08-20T11:31:22;100943.81;;;28.31;69.89
2339;BME280;1180;51.438;6.978;2023-08-20T11:33:49;100932.69;;;28.14;70.16
2339;BME280;1180;51.438;6.978;2023-08-20T11:36:16;100935.88;;;28.24;67.96
2339;BME280;1180;51.438;6.978;2023-08-20T11:38:49;100938.13;;;28.05;68.16
2339;BME280;1180;51.438;6.978;2023-08-20T11:41:16;100940.59;;;28.35;67.81
2339;BME280;1180;51.438;6.978;2023-08-20T11:43:41;100938.19;;;28.40;65.85
2339;BME280;1180;51.438;6.978;2023-08-20T11:46:13;100937.69;;;28.52;66.99
2339;BME280;1180;51.438;6.978;2023-08-20T11:49:08;100943.97;;;28.22;67.50
2339;BME280;1180;51.438;6.978;2023-08-20T11:51:49;100937.84;;;27.72;69.79
2339;BME280;1180;51.438;6.978;2023-08-20T11:54:19;100930.47;;;27.67;69.38
2339;BME280;1180;51.438;6.978;2023-08-20T11:56:49;100940.66;;;27.70;69.51
2339;BME280;1180;51.438;6.978;2023-08-20T11:59:16;100931.34;;;27.96;68.58
2339;BME280;1180;51.438;6.978;2023-08-20T12:01:43;100925.75;;;28.06;68.27
2339;BME280;1180;51.438;6.978;2023-08-20T12:04:15;100927.72;;;27.97;67.00
2339;BME280;1180;51.438;6.978;2023-08-20T12:06:41;100934.00;;;28.18;67.31
2339;BME280;1180;51.438;6.978;2023-08-20T12:09:30;100922.84;;;28.22;66.17
2339;BME280;1180;51.438;6.978;2023-08-20T12:11:57;100919.03;;;28.60;66.12
2339;BME280;1180;51.438;6.978;2023-08-20T12:14:24;100918.56;;;28.78;64.08
2339;BME280;1180;51.438;6.978;2023-08-20T12:16:51;100921.47;;;28.97;62.65
2339;BME280;1180;51.438;6.978;2023-08-20T12:19:16;100913.78;;;29.09;61.32
2339;BME280;1180;51.438;6.978;2023-08-20T12:21:44;100926.84;;;29.17;61.08
2339;BME280;1180;51.438;6.978;2023-08-20T12:24:10;100911.34;;;29.14;60.58
2339;BME280;1180;51.438;6.978;2023-08-20T12:26:37;100911.00;;;29.17;61.42
2339;BME280;1180;51.438;6.978;2023-08-20T12:29:03;100914.44;;;28.76;61.54
2339;BME280;1180;51.438;6.978;2023-08-20T12:31:33;100921.69;;;28.32;63.68
2339;BME280;1180;51.438;6.978;2023-08-20T12:34:00;100920.94;;;28.38;64.70
2339;BME280;1180;51.438;6.978;2023-08-20T12:36:27;100916.81;;;28.64;63.59
2339;BME280;1180;51.438;6.978;2023-08-20T12:38:52;100919.22;;;28.59;63.80
2339;BME280;1180;51.438;6.978;2023-08-20T12:41:19;100906.06;;;28.65;64.53
2339;BME280;1180;51.438;6.978;2023-08-20T12:43:46;100910.72;;;28.63;63.50
2339;BME280;1180;51.438;6.978;2023-08-20T12:46:12;100905.22;;;28.58;63.40
2339;BME280;1180;51.438;6.978;2023-08-20T12:48:39;100906.16;;;28.15;63.99
2339;BME280;1180;51.438;6.978;2023-08-20T12:51:05;100905.78;;;27.96;63.30
2339;BME280;1180;51.438;6.978;2023-08-20T12:53:32;100909.88;;;27.99;64.56
2339;BME280;1180;51.438;6.978;2023-08-20T12:55:58;100908.31;;;28.33;64.47
2339;BME280;1180;51.438;6.978;2023-08-20T12:58:24;100904.03;;;28.67;63.82
2339;BME280;1180;51.438;6.978;2023-08-20T13:00:51;100899.31;;;28.91;62.50
2339;BME280;1180;51.438;6.978;2023-08-20T13:03:18;100890.47;;;29.19;60.88
2339;BME280;1180;51.438;6.978;2023-08-20T13:05:44;100884.72;;;29.02;60.60
2339;BME280;1180;51.438;6.978;2023-08-20T13:08:11;100906.63;;;28.96;60.36
2339;BME280;1180;51.438;6.978;2023-08-20T13:10:41;100888.63;;;29.26;60.60
2339;BME280;1180;51.438;6.978;2023-08-20T13:13:10;100893.59;;;29.50;60.12
2339;BME280;1180;51.438;6.978;2023-08-20T13:15:38;100881.56;;;29.40;59.26
2339;BME280;1180;51.438;6.978;2023-08-20T13:18:06;100880.16;;;29.45;59.77
2339;BME280;1180;51.438;6.978;2023-08-20T13:20:33;100882.34;;;29.34;59.67
2339;BME280;1180;51.438;6.978;2023-08-20T13:22:59;100876.69;;;29.44;60.00
2339;BME280;1180;51.438;6.978;2023-08-20T13:25:28;100885.47;;;29.65;59.15